Ingersoll, Canada
Current Conditions -  °F | °C
As of 6:00 PM on Sunday 21 Dec 2014 (Local Time) from CYXU Reporting Station
Clear Clear  
Wind Chill: 21°   Ceiling: Unl
Heat Index: 27°   Visibility: 12mi
Dew Point: 23°   Wind: 5mph
Humidity: 86%   Direction: 160°SSE
Pressure: 30.26"   Gusts: NA
Location:  43.04°N, 80.88°W
Report Text: CYXU 212300Z 16004KT 12SM SKC M03/M05 A3026 RMK SLP260
Loading
Personal Weather Stations






























Interactive Weather Map New forecast layout! Learn more

10-Day Weather Forecast

Advertisements
Track Severe Weather on mobile